Terminal Aerodrome Forecast
Issued by NWS Buffalo, NY

Home | Current Version | Previous Version | Text Only | Print | Product List | Glossary On
Versions: 1 2 3 4 5 6 7 8 9 10 11 12 13 14 15 16 17 18 19 20 21 22 23 24 25 26 27 28 29 30 31 32 33
725
FTUS41 KBUF 130901 AAC
TAFBUF
TAF AMD
KBUF 130901Z 1309/1406 33014G21KT 3SM -SN BLSN SCT020 OVC025
     FM131100 32015G25KT 5SM -SHSN BLSN BKN025
     FM131500 32017G27KT 6SM BLSN VCSH OVC025
     FM132100 31012G20KT P6SM VCSH OVC040
     FM140300 33010KT P6SM VCSH BKN025=

USA.gov is the U.S. government's official web portal to all federal, state and local government web resources and services.